Waverly, KS

10:30 AM CDT on October 23, 2014 (GMT -0500)
KS | Change Station
CLOSE
Current Station
Personal Weather Station
Location: Burlington, KS
Elevation: 1050 ft
Nearby Weather Stations

Elev 1050 ft 38.19 °N, 95.74 °W | Updated 0 second ago

Overcast
Overcast
62.2 °F
Feels Like 62.2 °F
N
2.9
Wind Variable Wind from SSE
Gusts 5.8 mph

Today
High -- | Low -- °F
--% Chance of Precip.
Yesterday
High -- | Low -- °F
Precip. -- in
7:39 AM 6:33 PM
Waning Crescent, 0% visible
Pressure 30.10 in
Visibility 4.0 miles
Clouds Overcast 600 ft
Dew Point 56 °F
Humidity 79%
Rainfall 0.20 in
Snow Depth Not available.
UV 1 out of 12
Pollen .90 out of 12
Air Quality Not available.
Flu Activity No Activity
METAR KEMP 231453Z AUTO 19009KT 4SM BR OVC006 17/16 A3011 RMK AO2 CIG 005V009 SLP192 T01670161 53007

More Conditions Fewer Conditions

Pressure 30.10 in
Visibility 4.0 miles
Clouds Overcast 600 ft
Dew Point 56 °F
Humidity 79%
Rainfall 0.20 in
Snow Depth Not available.
UV 1 out of 12
Pollen .90 out of 12
Air Quality Not available.
Flu Activity No Activity
METAR KEMP 231453Z AUTO 19009KT 4SM BR OVC006 17/16 A3011 RMK AO2 CIG 005V009 SLP192 T01670161 53007

More Conditions Fewer Conditions

10-Day Weather Forecast

Almanac

Astronomy

Oct. 23, 2014 Rise Set
Actual Time 7:39 AM CDT 6:33 PM CDT
Civil Twilight 7:12 AM CDT 7:00 PM CDT
Nautical Twilight 6:41 AM CDT 7:31 PM CDT
Astronomical Twilight 6:10 AM CDT 8:01 PM CDT
Moon 7:20 AM CDT 6:35 PM CDT
Length of Visible Light 11h 48m
Length of Day
10h 54m
Tomorrow will be 2m 18s shorter.
Waning Crescent, 0% of the Moon is Illuminated
Today
Waning Crescent
Oct 23
New
Oct 30
First Quarter
Nov 6
Full
Nov 14
Last Quarter

Today's Extremes

State Highs State Lows

Community

WunderPhotos

Upload Photos

1,764,285 photos uploaded!

Nearby

Snow Depth

Station Depth Elevation
No new snow has been reported.

Earthquake Activity

City Distance Mag. Time & Date
Pawnee, Oklahoma 157 miles 2.7 1:06 AM CDT
2014-10-23
Minimum magnitude displayed is 2.5.

Coastal Water Temperatures

Place Temperature
No Stations Reporting

Nearby Weather Stations